Aeroporto :
LOGIN :

Iscrizione | Disclaimer

   EN    FR    IT 

 










Sommario :    VFR   VFR Marginale   IFR   IFR Intensivo   IFR Molto Intensivo
Visibilità : 
Base nubi : 
>= 8 km
>= 3000ft
5 / 8 km
1000 / 3000 ft
1500m / 5 km
500 / 1000 ft
800 / 1500m
200 / 500 ft
< 800m
< 200 ft
Simboli :   Temporali  Nebbia  Neve Forte  Precipitazioni Forti  Vento > 20 kt
SIGMETs :   Varie  Temporali  Ghiacco  Turbolenza  Onda orograficha  Ceneri Vulcaniche






- Altitudine del aeroporto : 47 ft
- Codice IATA : CBG


EGSC - Cambridge

ULTIMO METAR :
  • 301150Z 30017G28KT 9999 FEW025 09/02 Q1024

METARs OBSOLETI :
  • 301120Z 30014KT CAVOK 08/02 Q1023
  • 301050Z 29013KT CAVOK 08/02 Q1023
  • 301020Z 29014KT CAVOK 08/02 Q1023
  • 300950Z 29015KT CAVOK 07/01 Q1023
  • 300920Z 28011KT 240V300 CAVOK 07/01 Q1023

TAF AMD TAF EGSC
Valido dal 30 a 12 ore il 30 a 18 ore UTC


301159Z 3012/3018 30012KT CAVOK
PROB30
TEMPO 3012/3014 30015G25KT



MetMap, La meteo Aeronautica in un colpo d'occhio ! - Copyright ORBIFLY Dicembre 2007 - Disclaimer

ORBIFLY MET'MAP TEAM :

Programmazione e sviluppo : Alexandra Zaïnal
Concezione : Baudouin d'Aumeries
Supporto tecnico e logistico : Manuel Goepfert
Aiuto : Marc-Olivier Méhu
Aiuto per la traduzione : Arnaldo La Scala




FONTI E CREDITI :

   NOAA